createdAt,value
2022-09-15T00:00:20.034Z,100.00
2022-09-15T00:05:21.537Z,100.00
2022-09-15T00:10:22.976Z,100.00
2022-09-15T00:15:24.548Z,100.00
2022-09-15T00:20:25.999Z,100.00
2022-09-15T00:25:27.461Z,100.00
2022-09-15T00:30:29.005Z,100.00
2022-09-15T00:35:30.500Z,100.00
2022-09-15T00:40:32.126Z,100.00
2022-09-15T00:45:33.627Z,100.00
2022-09-15T00:50:37.503Z,100.00
2022-09-15T00:55:47.369Z,100.00
2022-09-15T01:00:57.553Z,100.00
2022-09-15T01:06:10.191Z,100.00
2022-09-15T01:11:11.750Z,100.00
2022-09-15T01:16:24.307Z,100.00
2022-09-15T01:21:40.609Z,100.00
2022-09-15T01:26:44.925Z,100.00
2022-09-15T01:32:39.849Z,99.89
2022-09-15T01:38:00.172Z,99.88
2022-09-15T01:43:03.197Z,100.00
2022-09-15T01:48:08.722Z,100.00
2022-09-15T01:53:15.172Z,99.56
2022-09-15T01:58:16.682Z,98.95
2022-09-15T02:03:28.614Z,97.64
2022-09-15T02:08:47.563Z,97.06
2022-09-15T02:14:13.601Z,96.46
2022-09-15T02:19:36.038Z,95.07
2022-09-15T02:24:45.731Z,93.44
2022-09-15T02:29:48.854Z,92.32
2022-09-15T02:34:54.530Z,91.76
2022-09-15T02:39:59.009Z,91.33
2022-09-15T02:45:01.515Z,90.70
2022-09-15T02:50:03.117Z,90.39
2022-09-15T02:55:05.075Z,90.39
2022-09-15T03:00:13.918Z,89.59
2022-09-15T03:05:16.711Z,88.97
2022-09-15T03:10:18.870Z,88.14
2022-09-15T03:15:23.756Z,87.88
2022-09-15T03:20:30.363Z,88.37
2022-09-15T03:25:32.354Z,88.71
2022-09-15T03:30:33.792Z,88.18
2022-09-15T03:35:35.292Z,88.36
2022-09-15T03:40:37.736Z,88.22
2022-09-15T03:45:39.451Z,88.30
2022-09-15T03:50:40.922Z,88.55
2022-09-15T03:55:42.435Z,89.01
2022-09-15T04:00:45.699Z,89.86
2022-09-15T04:05:47.387Z,90.66
2022-09-15T04:10:48.856Z,91.09
2022-09-15T04:16:05.855Z,92.00
2022-09-15T04:21:11.501Z,92.59
2022-09-15T04:26:26.001Z,93.26
2022-09-15T04:31:27.702Z,93.66
2022-09-15T04:36:29.400Z,94.39
2022-09-15T04:41:30.866Z,94.62
2022-09-15T04:46:32.662Z,94.91
2022-09-15T04:51:34.168Z,94.64
2022-09-15T04:56:35.626Z,94.93
2022-09-15T05:01:37.131Z,94.92
2022-09-15T05:06:38.838Z,94.95
2022-09-15T05:11:40.637Z,94.87
2022-09-15T05:16:42.207Z,94.51
2022-09-15T05:21:43.765Z,94.97
2022-09-15T05:26:45.203Z,95.16
2022-09-15T05:31:46.691Z,94.96
2022-09-15T05:36:48.145Z,96.77
2022-09-15T05:41:50.075Z,98.66
2022-09-15T05:46:52.375Z,100.00
2022-09-15T05:51:54.067Z,100.00
2022-09-15T05:56:55.512Z,100.00
2022-09-15T06:01:59.578Z,100.00
2022-09-15T06:07:01.079Z,100.00
2022-09-15T06:12:02.654Z,100.00
2022-09-15T06:17:04.273Z,100.00
2022-09-15T06:22:05.747Z,100.00
2022-09-15T06:27:07.774Z,100.00
2022-09-15T06:32:09.268Z,100.00
2022-09-15T06:37:11.862Z,100.00
2022-09-15T06:42:14.020Z,99.26
2022-09-15T06:47:15.600Z,99.06
2022-09-15T06:52:17.061Z,98.65
2022-09-15T06:57:18.575Z,98.32
2022-09-15T07:02:20.173Z,97.86
2022-09-15T07:07:21.696Z,97.99
2022-09-15T07:12:23.151Z,97.75
2022-09-15T07:17:26.487Z,97.89
2022-09-15T07:22:28.087Z,97.79
2022-09-15T07:27:31.663Z,97.46
2022-09-15T07:32:33.196Z,96.74
2022-09-15T07:37:35.932Z,96.03
2022-09-15T07:42:37.547Z,96.02
2022-09-15T07:47:39.281Z,95.83
2022-09-15T07:52:40.793Z,96.09
2022-09-15T07:57:42.252Z,95.63
2022-09-15T08:02:43.726Z,95.09
2022-09-15T08:07:45.169Z,95.05
2022-09-15T08:12:46.669Z,94.70
2022-09-15T08:17:48.188Z,93.58
2022-09-15T08:22:49.658Z,93.01
2022-09-15T08:27:52.873Z,92.45
2022-09-15T08:32:54.388Z,91.40
2022-09-15T08:37:55.856Z,92.11
2022-09-15T08:43:03.546Z,93.24
2022-09-15T08:48:08.427Z,93.25
2022-09-15T08:53:20.059Z,92.84
2022-09-15T08:58:37.737Z,93.17
2022-09-15T09:04:03.560Z,92.50
2022-09-15T09:09:20.124Z,90.94
2022-09-15T09:14:36.365Z,89.65
2022-09-15T09:19:53.060Z,88.11
2022-09-15T09:24:58.215Z,85.21
2022-09-15T09:30:20.061Z,83.04
2022-09-15T09:35:54.087Z,82.45
2022-09-15T09:41:01.315Z,81.93
2022-09-15T09:46:13.622Z,80.87
2022-09-15T09:51:51.785Z,77.18
2022-09-15T09:56:55.322Z,77.18
2022-09-15T10:02:06.027Z,81.40
2022-09-15T10:07:08.838Z,83.84
2022-09-15T10:12:32.050Z,85.46
2022-09-15T10:17:36.139Z,84.25
2022-09-15T10:22:42.135Z,81.65
2022-09-15T10:27:44.232Z,75.59
2022-09-15T10:32:45.779Z,73.97
2022-09-15T10:38:04.969Z,72.15
2022-09-15T10:43:46.100Z,71.37
2022-09-15T10:49:03.471Z,70.19
2022-09-15T10:54:10.724Z,69.32
2022-09-15T10:59:30.394Z,68.16
2022-09-15T11:04:50.620Z,67.96
2022-09-15T11:10:12.046Z,67.86
2022-09-15T11:15:42.637Z,70.68
2022-09-15T11:21:09.103Z,78.38
2022-09-15T11:26:23.402Z,82.16
2022-09-15T11:31:31.488Z,82.00
2022-09-15T11:36:44.983Z,81.69
2022-09-15T11:41:56.261Z,81.63
2022-09-15T11:47:22.264Z,81.29
2022-09-15T11:52:35.750Z,78.96
2022-09-15T11:57:44.558Z,75.94
2022-09-15T12:03:01.703Z,74.89
2022-09-15T12:08:12.786Z,77.68
2022-09-15T12:13:18.302Z,79.99
2022-09-15T12:18:38.573Z,81.40
2022-09-15T12:23:53.134Z,82.05
2022-09-15T12:29:02.426Z,82.17
2022-09-15T12:34:25.701Z,82.23
2022-09-15T12:39:36.441Z,81.63
2022-09-15T12:44:42.958Z,80.04
2022-09-15T12:49:49.166Z,77.16
2022-09-15T12:54:58.657Z,74.22
2022-09-15T13:00:31.286Z,71.12
2022-09-15T13:05:42.003Z,69.91
2022-09-15T13:11:00.849Z,68.40
2022-09-15T13:16:06.874Z,67.54
2022-09-15T13:21:14.023Z,66.09
2022-09-15T13:26:17.998Z,66.64
2022-09-15T13:31:34.625Z,65.79
2022-09-15T13:42:35.412Z,68.29
2022-09-15T13:47:58.796Z,68.77
2022-09-15T13:53:20.482Z,67.74
2022-09-15T14:03:55.139Z,66.51
2022-09-15T14:09:00.802Z,66.15
2022-09-15T14:14:03.394Z,65.38
2022-09-15T14:19:33.710Z,64.82
2022-09-15T14:24:40.117Z,65.75
2022-09-15T14:29:43.797Z,67.47
2022-09-15T14:39:56.528Z,68.87
2022-09-15T14:50:33.557Z,70.87
2022-09-15T14:55:53.233Z,71.07
2022-09-15T15:01:17.258Z,71.81
2022-09-15T15:06:29.603Z,72.49
2022-09-15T15:11:34.545Z,73.11
2022-09-15T15:16:36.135Z,74.40
2022-09-15T15:21:43.202Z,75.59
2022-09-15T15:26:46.428Z,76.29
2022-09-15T15:31:47.961Z,75.59
2022-09-15T15:36:49.479Z,73.03
2022-09-15T15:42:02.186Z,72.33
2022-09-15T15:47:24.595Z,73.23
2022-09-15T15:52:26.091Z,73.24
2022-09-15T15:57:32.966Z,74.42
2022-09-15T16:02:35.124Z,75.28
2022-09-15T16:07:37.520Z,75.93
2022-09-15T16:12:39.060Z,76.98
2022-09-15T16:17:45.852Z,76.97
2022-09-15T16:22:48.339Z,76.82
2022-09-15T16:27:49.817Z,78.01
2022-09-15T16:32:51.718Z,82.26
2022-09-15T16:37:53.270Z,85.70
2022-09-15T16:42:54.853Z,87.85
2022-09-15T16:47:56.394Z,89.66
2022-09-15T16:53:00.013Z,90.88
2022-09-15T16:58:03.282Z,92.19
2022-09-15T17:03:06.746Z,93.71
2022-09-15T17:08:09.701Z,94.75
2022-09-15T17:13:25.059Z,95.61
2022-09-15T17:18:29.531Z,96.55
2022-09-15T17:23:38.888Z,97.21
2022-09-15T17:28:41.187Z,97.70
2022-09-15T17:33:43.786Z,98.27
2022-09-15T17:38:46.023Z,98.39
2022-09-15T17:43:48.351Z,98.23
2022-09-15T17:48:49.797Z,98.54
2022-09-15T17:53:51.346Z,98.99
2022-09-15T17:58:52.867Z,99.83
2022-09-15T18:03:54.423Z,100.00
2022-09-15T18:08:57.061Z,100.00
2022-09-15T18:13:58.545Z,99.93
2022-09-15T18:19:00.003Z,100.00
2022-09-15T18:24:01.592Z,100.00
2022-09-15T18:29:03.483Z,100.00
2022-09-15T18:34:05.041Z,100.00
2022-09-15T18:39:06.665Z,100.00
2022-09-15T18:44:08.142Z,100.00
2022-09-15T18:49:09.843Z,100.00
2022-09-15T18:54:11.320Z,100.00
2022-09-15T18:59:15.538Z,100.00
2022-09-15T19:04:19.121Z,100.00
2022-09-15T19:09:20.650Z,100.00
2022-09-15T19:14:22.153Z,100.00
2022-09-15T19:19:24.048Z,100.00
2022-09-15T19:24:31.872Z,100.00
2022-09-15T19:29:35.672Z,100.00
2022-09-15T19:34:38.807Z,100.00
2022-09-15T19:39:40.693Z,100.00
2022-09-15T19:44:42.293Z,100.00
2022-09-15T19:49:43.798Z,100.00
2022-09-15T19:54:45.292Z,100.00
2022-09-15T19:59:47.028Z,100.00
2022-09-15T20:04:50.353Z,100.00
2022-09-15T20:09:53.305Z,100.00
2022-09-15T20:14:54.808Z,100.00
2022-09-15T20:19:56.261Z,100.00
2022-09-15T20:24:57.740Z,100.00
2022-09-15T20:29:59.511Z,100.00
2022-09-15T20:35:01.223Z,100.00
2022-09-15T20:40:04.375Z,100.00
2022-09-15T20:45:06.518Z,100.00
2022-09-15T20:50:08.399Z,100.00
2022-09-15T20:55:09.832Z,100.00
2022-09-15T21:00:12.037Z,100.00
2022-09-15T21:05:13.537Z,100.00
2022-09-15T21:10:15.595Z,100.00
2022-09-15T21:15:17.053Z,100.00
2022-09-15T21:20:18.902Z,100.00
2022-09-15T21:25:20.978Z,100.00
2022-09-15T21:30:22.419Z,100.00
2022-09-15T21:35:23.892Z,100.00
2022-09-15T21:40:25.394Z,100.00
2022-09-15T21:45:27.129Z,100.00
2022-09-15T21:50:29.697Z,100.00
2022-09-15T21:55:31.145Z,100.00
2022-09-15T22:00:32.582Z,100.00
2022-09-15T22:05:34.063Z,100.00
2022-09-15T22:10:35.691Z,100.00
2022-09-15T22:15:37.384Z,100.00
2022-09-15T22:20:38.825Z,100.00
2022-09-15T22:25:40.277Z,100.00
2022-09-15T22:30:41.759Z,100.00
2022-09-15T22:35:47.508Z,100.00
2022-09-15T22:40:49.209Z,100.00
2022-09-15T22:45:50.778Z,100.00
2022-09-15T22:50:52.342Z,100.00
2022-09-15T22:56:04.928Z,100.00
2022-09-15T23:01:09.618Z,100.00
2022-09-15T23:06:11.458Z,100.00
2022-09-15T23:11:13.937Z,100.00
2022-09-15T23:16:16.111Z,100.00
2022-09-15T23:21:17.876Z,100.00
2022-09-15T23:26:21.688Z,100.00
2022-09-15T23:31:23.494Z,100.00
2022-09-15T23:36:25.079Z,100.00
2022-09-15T23:41:26.585Z,100.00
2022-09-15T23:46:28.173Z,100.00
2022-09-15T23:51:30.212Z,100.00
2022-09-15T23:56:33.716Z,100.00
